Time;durP1;ratioP1;P1;durP2;ratioP2;P2;SDS_P1;SDS_P2;PMS_P1;PMS_P2;Temp;Humidity;BMP_temperature;BMP_pressure;BME280_temperature;BME280_humidity;BME280_pressure;Samples;Min_cycle;Max_cycle;Signal;HPM_P1;HPM_P2
2022/07/21 00:01:32;;;;;;;22.60;19.38;;;;;;;21.79;73.61;99119.16;2619520;54;20038;-66
2022/07/21 00:04:05;;;;;;;21.52;19.25;;;;;;;21.82;73.59;99134.78;2618835;54;20026;-65
2022/07/21 00:06:35;;;;;;;18.63;16.60;;;;;;;21.67;73.41;99133.59;2619437;46;20161;-65
2022/07/21 00:09:05;;;;;;;20.10;17.55;;;;;;;21.66;73.48;99123.91;2619729;39;20436;-66
2022/07/21 00:11:35;;;;;;;19.25;16.75;;;;;;;21.66;73.57;99126.59;2619839;54;20044;-67
2022/07/21 00:14:07;;;;;;;17.65;15.85;;;;;;;21.68;73.48;99132.53;2619693;39;20453;-67
2022/07/21 00:16:41;;;;;;;18.35;15.57;;;;;;;21.71;73.10;99134.69;2619567;39;20445;-66
2022/07/21 00:19:13;;;;;;;18.30;16.50;;;;;;;21.71;72.91;99134.69;2619293;54;20030;-66
2022/07/21 00:21:43;;;;;;;19.67;17.13;;;;;;;21.67;73.24;99135.47;2619399;54;20035;-67
2022/07/21 00:24:13;;;;;;;20.20;17.63;;;;;;;21.64;73.67;99136.81;2618788;54;20030;-68
2022/07/21 00:26:42;;;;;;;17.85;16.08;;;;;;;21.57;73.21;99146.97;2619600;39;20417;-67
2022/07/21 00:29:12;;;;;;;17.60;15.88;;;;;;;21.46;73.76;99142.56;2618167;47;20117;-66
2022/07/21 00:31:42;;;;;;;16.73;14.93;;;;;;;21.35;73.88;99140.84;2619589;54;20042;-68
2022/07/21 00:34:14;;;;;;;18.95;16.10;;;;;;;21.34;74.27;99155.34;2619038;54;20023;-67
2022/07/21 00:36:44;;;;;;;18.15;16.25;;;;;;;21.36;74.29;99158.63;2619529;39;20453;-67
2022/07/21 00:39:14;;;;;;;17.65;15.75;;;;;;;21.29;74.91;99161.47;2618703;54;20038;-66
2022/07/21 00:41:43;;;;;;;18.55;16.27;;;;;;;21.25;75.11;99166.53;2618991;54;20038;-65
2022/07/21 00:44:22;;;;;;;17.08;15.27;;;;;;;21.30;75.37;99165.78;2618872;39;20414;-66
2022/07/21 00:46:52;;;;;;;17.67;15.55;;;;;;;21.36;75.23;99177.44;2618199;54;20041;-66
2022/07/21 00:49:24;;;;;;;17.05;15.25;;;;;;;21.37;74.71;99173.69;2618427;54;20090;-65
2022/07/21 00:51:54;;;;;;;17.50;15.60;;;;;;;21.39;74.78;99172.38;2619933;54;20081;-67
2022/07/21 00:54:24;;;;;;;16.63;13.32;;;;;;;21.43;75.09;99172.66;2619398;54;20034;-68
2022/07/21 00:56:54;;;;;;;15.82;14.18;;;;;;;21.55;74.45;99167.13;2619783;54;20041;-67
2022/07/21 00:59:24;;;;;;;16.40;14.73;;;;;;;21.55;74.39;99167.13;2621333;54;20077;-67
2022/07/21 01:01:53;;;;;;;16.08;14.40;;;;;;;21.42;73.95;99173.72;2621452;54;20030;-68
2022/07/21 01:04:26;;;;;;;15.35;13.45;;;;;;;21.42;74.35;99176.41;2619975;54;20056;-68
2022/07/21 01:06:56;;;;;;;15.35;13.82;;;;;;;21.46;74.26;99183.72;2619009;54;20023;-67
2022/07/21 01:09:26;;;;;;;15.00;13.02;;;;;;;21.45;73.45;99182.09;2618255;47;20026;-67
2022/07/21 01:11:56;;;;;;;20.75;13.68;;;;;;;21.48;73.74;99184.28;2619352;54;20034;-68
2022/07/21 01:14:26;;;;;;;14.13;12.57;;;;;;;21.38;73.90;99186.06;2619024;54;20031;-66
2022/07/21 01:16:56;;;;;;;15.60;13.20;;;;;;;21.38;74.02;99191.44;2619171;54;20081;-65
2022/07/21 01:19:29;;;;;;;15.65;12.77;;;;;;;21.39;73.80;99190.34;2618785;54;20042;-65
2022/07/21 01:22:02;;;;;;;16.05;13.85;;;;;;;21.45;73.85;99194.72;2618765;54;20038;-67
2022/07/21 01:24:31;;;;;;;14.57;13.18;;;;;;;21.49;73.92;99199.34;2618788;39;20462;-68
2022/07/21 01:27:01;;;;;;;17.90;13.55;;;;;;;21.48;73.68;99200.41;2618949;54;20046;-67
2022/07/21 01:29:31;;;;;;;18.58;14.60;;;;;;;21.46;73.29;99209.81;2618902;54;20039;-66
2022/07/21 01:32:02;;;;;;;18.45;14.77;;;;;;;21.46;73.73;99201.72;2620581;54;20026;-67
2022/07/21 01:34:32;;;;;;;17.23;14.65;;;;;;;21.47;73.48;99209.56;2621196;47;20118;-67
2022/07/21 01:37:04;;;;;;;17.00;15.32;;;;;;;21.44;73.50;99211.94;2623557;54;20042;-67
2022/07/21 01:42:16;;;;;;;19.05;16.98;;;;;;;21.47;73.35;99224.88;2620920;54;20038;-66
2022/07/21 01:44:46;;;;;;;19.27;17.48;;;;;;;21.44;73.16;99222.69;2620405;39;20412;-68
2022/07/21 01:47:17;;;;;;;17.60;15.85;;;;;;;21.37;73.59;99224.78;2618149;47;20554;-67
2022/07/21 01:49:47;;;;;;;22.40;18.23;;;;;;;21.26;73.10;99227.31;2618094;47;20034;-65
2022/07/21 01:52:20;;;;;;;20.15;18.02;;;;;;;21.26;73.83;99226.50;2619171;54;20041;-66
2022/07/21 01:54:50;;;;;;;19.20;17.27;;;;;;;21.20;73.72;99225.63;2618679;54;20134;-67
2022/07/21 01:57:19;;;;;;;19.20;17.20;;;;;;;21.22;73.90;99231.56;2618733;54;20030;-65
2022/07/21 01:59:49;;;;;;;19.73;17.73;;;;;;;21.26;73.93;99239.94;2619028;54;20036;-65
2022/07/21 02:02:20;;;;;;;19.42;17.63;;;;;;;21.24;73.55;99234.81;2619051;54;20145;-67
2022/07/21 02:04:50;;;;;;;20.10;17.95;;;;;;;21.28;73.87;99237.81;2618448;54;20093;-67
2022/07/21 02:07:23;;;;;;;18.35;16.23;;;;;;;21.35;73.69;99229.56;2618060;47;20030;-67
2022/07/21 02:09:53;;;;;;;19.58;16.33;;;;;;;21.37;73.60;99233.66;2618229;54;20038;-67
2022/07/21 02:12:23;;;;;;;16.50;14.90;;;;;;;21.38;73.55;99229.88;2618449;54;20085;-67
2022/07/21 02:14:53;;;;;;;17.67;15.88;;;;;;;21.38;73.33;99229.88;2619403;47;20042;-67
2022/07/21 02:17:23;;;;;;;20.00;16.05;;;;;;;21.32;73.50;99233.59;2619729;54;20041;-66
2022/07/21 02:19:53;;;;;;;17.73;15.88;;;;;;;21.32;73.37;99240.81;2619597;54;20045;-67
2022/07/21 02:22:25;;;;;;;18.58;15.77;;;;;;;21.36;73.33;99237.41;2620139;54;20138;-65
2022/07/21 02:24:55;;;;;;;16.98;15.27;;;;;;;21.36;72.83;99232.03;2619819;54;20038;-67
2022/07/21 02:27:24;;;;;;;17.70;16.00;;;;;;;21.43;72.63;99238.03;2619442;54;20041;-68
2022/07/21 02:29:54;;;;;;;16.77;15.02;;;;;;;21.42;72.51;99224.81;2619291;54;20042;-69
2022/07/21 02:32:24;;;;;;;18.08;14.95;;;;;;;21.35;72.09;99221.50;2619676;54;20033;-67
2022/07/21 02:34:53;;;;;;;16.40;14.57;;;;;;;21.37;72.02;99225.59;2620135;47;20030;-69
2022/07/21 02:37:26;;;;;;;16.67;15.00;;;;;;;21.37;71.56;99228.28;2619779;54;20034;-67
2022/07/21 02:39:56;;;;;;;16.33;14.43;;;;;;;21.37;71.91;99222.09;2618531;54;20061;-66
2022/07/21 02:42:25;;;;;;;15.32;13.82;;;;;;;21.34;71.59;99222.59;2618972;54;20572;-66
2022/07/21 02:44:55;;;;;;;14.68;13.20;;;;;;;21.36;71.17;99217.78;2619089;54;20544;-67
2022/07/21 02:47:24;;;;;;;15.90;14.20;;;;;;;21.32;71.09;99220.16;2619503;54;20031;-66
2022/07/21 02:49:54;;;;;;;16.42;14.38;;;;;;;21.23;71.35;99224.34;2619427;39;20426;-66
2022/07/21 02:52:28;;;;;;;16.65;14.75;;;;;;;21.22;71.50;99234.25;2619247;54;20041;-67
2022/07/21 02:54:58;;;;;;;15.63;14.02;;;;;;;21.17;71.37;99236.88;2619276;54;20564;-65
2022/07/21 02:57:28;;;;;;;15.80;14.15;;;;;;;21.11;71.37;99227.16;2619815;39;20452;-67
2022/07/21 02:59:57;;;;;;;16.70;13.95;;;;;;;21.09;71.42;99226.56;2619318;54;20031;-65
2022/07/21 03:02:27;;;;;;;15.07;13.50;;;;;;;21.04;71.16;99229.22;2620590;54;20034;-66
2022/07/21 03:04:57;;;;;;;16.08;14.38;;;;;;;20.99;71.17;99226.47;2620607;54;20030;-67
2022/07/21 03:07:29;;;;;;;15.50;13.93;;;;;;;21.01;71.43;99224.31;2619993;39;20399;-68
2022/07/21 03:09:59;;;;;;;16.05;13.68;;;;;;;20.95;71.52;99236.09;2618143;54;20032;-67
2022/07/21 03:12:28;;;;;;;16.40;14.50;;;;;;;20.90;71.39;99236.00;2618596;47;20055;-67
2022/07/21 03:14:58;;;;;;;16.02;14.32;;;;;;;20.92;71.53;99237.38;2618660;47;20035;-67
2022/07/21 03:17:28;;;;;;;20.42;15.02;;;;;;;20.96;70.96;99232.34;2619140;54;20569;-68
2022/07/21 03:19:57;;;;;;;15.38;13.80;;;;;;;20.91;71.15;99240.34;2618601;54;20027;-68
2022/07/21 03:22:30;;;;;;;17.20;15.07;;;;;;;20.89;71.25;99240.56;2618787;54;20034;-66
2022/07/21 03:24:59;;;;;;;17.38;15.63;;;;;;;20.84;71.65;99232.44;2619172;39;20422;-66
2022/07/21 03:27:29;;;;;;;16.80;15.18;;;;;;;20.83;71.74;99246.16;2619247;54;20039;-68
2022/07/21 03:29:59;;;;;;;18.98;16.98;;;;;;;20.78;72.00;99252.25;2619431;39;20532;-68
2022/07/21 03:32:29;;;;;;;17.98;16.00;;;;;;;20.77;71.87;99248.75;2619459;54;20081;-67
2022/07/21 03:34:58;;;;;;;18.33;16.38;;;;;;;20.80;72.15;99252.81;2618508;47;20117;-67
2022/07/21 03:37:31;;;;;;;17.00;15.18;;;;;;;20.88;72.30;99254.25;2618294;47;20027;-65
2022/07/21 03:40:01;;;;;;;17.83;15.90;;;;;;;20.89;71.89;99253.19;2618900;54;20043;-67
2022/07/21 03:42:30;;;;;;;17.58;15.75;;;;;;;20.90;71.98;99255.66;2618615;47;20026;-66
2022/07/21 03:45:00;;;;;;;18.30;16.13;;;;;;;20.91;72.00;99253.78;2619253;54;20030;-67
2022/07/21 03:47:30;;;;;;;17.40;15.35;;;;;;;20.91;71.53;99248.41;2619078;54;20030;-68
2022/07/21 03:49:59;;;;;;;18.42;14.45;;;;;;;20.86;71.42;99251.00;2618999;54;20038;-67
2022/07/21 03:52:32;;;;;;;16.30;14.65;;;;;;;20.80;71.44;99250.13;2621719;54;20042;-67
2022/07/21 03:55:12;;;;;;;17.08;14.07;;;;;;;20.74;71.72;99238.50;2622785;54;20035;-68
2022/07/21 03:57:46;;;;;;;18.23;15.18;;;;;;;20.70;71.69;99239.25;2619113;39;20426;-67
2022/07/21 04:03:13;;;;;;;16.67;14.80;;;;;;;20.59;71.67;99227.56;2610387;39;20760;-69
2022/07/21 04:05:44;;;;;;;18.38;15.95;;;;;;;20.55;71.55;99222.94;2619839;54;20034;-69
2022/07/21 04:08:16;;;;;;;16.98;15.27;;;;;;;20.53;71.54;99225.84;2619420;54;20034;-69
2022/07/21 04:10:46;;;;;;;19.77;15.65;;;;;;;20.53;72.01;99228.53;2617305;47;20045;-69
2022/07/21 04:13:16;;;;;;;16.23;14.52;;;;;;;20.50;71.88;99229.03;2617317;54;20055;-68
2022/07/21 04:15:53;;;;;;;19.25;15.55;;;;;;;20.47;72.25;99237.56;2617949;54;20111;-70
2022/07/21 04:18:23;;;;;;;16.95;15.25;;;;;;;20.49;72.05;99243.50;2618230;54;20653;-68
2022/07/21 04:20:53;;;;;;;16.40;14.80;;;;;;;20.46;71.60;99239.44;2617908;54;20038;-67
2022/07/21 04:23:25;;;;;;;17.52;14.45;;;;;;;20.41;72.00;99247.41;2618025;54;20030;-68
2022/07/21 04:25:55;;;;;;;16.85;15.05;;;;;;;20.42;71.75;99243.66;2618065;54;20042;-68
2022/07/21 04:28:25;;;;;;;17.90;15.98;;;;;;;20.44;71.90;99244.22;2617388;54;20072;-68
2022/07/21 04:30:54;;;;;;;16.88;15.07;;;;;;;20.42;72.03;99249.03;2617239;47;20034;-67
2022/07/21 04:33:24;;;;;;;17.15;15.25;;;;;;;20.49;72.04;99256.94;2617778;54;20030;-68
2022/07/21 04:35:54;;;;;;;16.10;14.50;;;;;;;20.55;71.62;99260.53;2617358;54;20022;-68
2022/07/21 04:38:26;;;;;;;18.70;16.65;;;;;;;20.63;71.22;99268.97;2618096;39;20442;-68
2022/07/21 04:40:56;;;;;;;15.73;14.20;;;;;;;20.66;71.44;99265.81;2617811;54;20022;-68
2022/07/21 04:43:25;;;;;;;17.95;15.82;;;;;;;20.69;71.24;99275.22;2617896;54;20030;-67
2022/07/21 04:45:55;;;;;;;17.55;15.75;;;;;;;20.77;71.51;99270.22;2617798;54;20034;-68
2022/07/21 04:48:25;;;;;;;25.65;18.55;;;;;;;20.87;71.12;99271.47;2617867;54;20038;-69
2022/07/21 04:50:55;;;;;;;16.80;15.20;;;;;;;21.00;70.88;99271.91;2617748;54;20123;-68
2022/07/21 04:53:27;;;;;;;16.30;14.60;;;;;;;21.10;70.20;99273.88;2617786;54;20036;-68
2022/07/21 04:55:57;;;;;;;16.05;14.30;;;;;;;21.22;69.85;99274.56;2617958;54;20041;-68
2022/07/21 04:58:26;;;;;;;18.48;16.45;;;;;;;21.25;69.50;99267.91;2617860;54;20026;-68
2022/07/21 05:00:56;;;;;;;15.52;14.02;;;;;;;21.37;69.25;99262.41;2617121;54;20041;-68
2022/07/21 05:03:25;;;;;;;15.48;13.70;;;;;;;21.42;69.20;99267.84;2617949;54;20087;-68
2022/07/21 05:05:55;;;;;;;16.20;14.18;;;;;;;21.38;69.34;99264.03;2617716;54;20027;-68
2022/07/21 05:08:27;;;;;;;15.57;13.93;;;;;;;21.33;69.37;99272.06;2617733;54;20030;-68
2022/07/21 05:10:57;;;;;;;16.48;14.80;;;;;;;21.23;69.51;99275.41;2617844;54;20042;-67
2022/07/21 05:13:27;;;;;;;16.30;14.57;;;;;;;21.20;69.75;99271.34;2617791;54;20027;-68
2022/07/21 05:15:56;;;;;;;15.80;14.18;;;;;;;21.16;69.70;99275.59;2617687;54;20034;-67
2022/07/21 05:18:27;;;;;;;16.98;14.40;;;;;;;21.17;70.38;99262.97;2617830;54;20042;-68
2022/07/21 05:20:56;;;;;;;15.32;13.70;;;;;;;21.18;69.85;99261.88;2617063;47;20030;-67
2022/07/21 05:23:28;;;;;;;15.00;13.60;;;;;;;21.25;70.12;99254.44;2617728;54;20038;-69
2022/07/21 05:25:58;;;;;;;15.98;14.43;;;;;;;21.24;69.79;99252.84;2617905;54;20038;-68
2022/07/21 05:28:31;;;;;;;15.38;13.88;;;;;;;21.16;69.85;99255.97;2617837;54;20030;-69
2022/07/21 05:31:00;;;;;;;15.32;13.73;;;;;;;21.19;70.39;99256.28;2617722;54;20035;-68
2022/07/21 05:33:30;;;;;;;17.33;14.40;;;;;;;21.25;70.17;99257.13;2617694;54;20042;-69
2022/07/21 05:36:00;;;;;;;14.68;12.68;;;;;;;21.26;70.03;99258.75;2617688;54;20034;-68
2022/07/21 05:38:32;;;;;;;14.27;12.80;;;;;;;21.25;70.36;99257.13;2617722;54;20030;-69
2022/07/21 05:41:02;;;;;;;17.13;12.93;;;;;;;21.25;70.08;99262.50;2617986;39;20098;-69
2022/07/21 05:43:32;;;;;;;18.17;13.32;;;;;;;21.28;69.82;99259.34;2617756;54;20039;-67
2022/07/21 05:46:02;;;;;;;15.93;12.57;;;;;;;21.37;69.56;99257.03;2617147;47;20034;-69
2022/07/21 05:48:32;;;;;;;14.65;12.32;;;;;;;21.43;70.18;99258.72;2617984;54;20117;-69
2022/07/21 05:51:02;;;;;;;23.17;13.30;;;;;;;21.49;69.77;99258.53;2618305;39;20467;-70
2022/07/21 05:53:34;;;;;;;14.05;12.15;;;;;;;21.60;69.51;99259.44;2618924;39;20413;-68
2022/07/21 05:56:03;;;;;;;12.43;11.20;;;;;;;21.68;68.91;99260.88;2617780;54;20038;-68
2022/07/21 05:58:35;;;;;;;12.40;11.07;;;;;;;21.65;69.08;99262.19;2618548;54;20038;-67
2022/07/21 06:01:12;;;;;;;13.05;11.27;;;;;;;21.68;69.19;99274.31;2618366;54;20041;-67
2022/07/21 06:03:45;;;;;;;13.65;11.20;;;;;;;21.73;68.86;99277.06;2618254;54;20037;-68
2022/07/21 06:06:16;;;;;;;12.88;11.10;;;;;;;21.79;68.80;99281.41;2618359;54;20038;-67
2022/07/21 06:08:50;;;;;;;12.73;11.55;;;;;;;21.90;68.22;99276.94;2618361;54;20042;-68
2022/07/21 06:11:22;;;;;;;12.85;10.27;;;;;;;21.87;67.79;99283.66;2618203;54;20026;-67
2022/07/21 06:13:52;;;;;;;11.82;9.50;;;;;;;21.84;68.04;99289.56;2618410;54;20034;-68
2022/07/21 06:16:22;;;;;;;10.80;9.65;;;;;;;21.95;68.10;99287.75;2618466;54;20029;-68
2022/07/21 06:18:52;;;;;;;12.98;9.30;;;;;;;21.99;67.63;99289.69;2617403;54;20145;-68
2022/07/21 06:21:22;;;;;;;13.63;12.15;;;;;;;22.13;66.83;99303.59;2618622;39;20535;-69
2022/07/21 06:23:54;;;;;;;11.85;9.88;;;;;;;22.24;66.45;99299.88;2618799;39;20406;-68
2022/07/21 06:26:27;;;;;;;11.75;9.98;;;;;;;22.41;66.21;99307.03;2618689;39;20398;-69
2022/07/21 06:28:57;;;;;;;9.85;8.85;;;;;;;22.55;65.73;99310.91;2618513;39;20426;-69
2022/07/21 06:31:27;;;;;;;12.82;10.68;;;;;;;22.57;65.86;99303.38;2617616;47;20030;-69
2022/07/21 06:33:56;;;;;;;10.07;8.90;;;;;;;22.58;64.94;99307.72;2617992;54;20031;-68
2022/07/21 06:36:26;;;;;;;9.88;8.88;;;;;;;22.59;64.68;99300.44;2618112;54;20034;-68
2022/07/21 06:38:58;;;;;;;13.40;9.85;;;;;;;22.64;65.27;99312.06;2618168;54;20805;-68
2022/07/21 06:41:28;;;;;;;14.43;10.07;;;;;;;22.58;64.77;99315.00;2619047;39;20441;-68
2022/07/21 06:43:58;;;;;;;9.77;8.82;;;;;;;22.50;65.14;99303.63;2618237;54;20290;-69
2022/07/21 06:46:27;;;;;;;13.25;10.68;;;;;;;22.67;64.74;99306.16;2617496;47;20030;-68
2022/07/21 06:48:57;;;;;;;13.15;9.32;;;;;;;22.79;64.26;99308.66;2618160;54;20034;-68
2022/07/21 06:51:27;;;;;;;11.38;9.38;;;;;;;22.78;64.21;99308.91;2618337;54;20033;-68
2022/07/21 06:53:59;;;;;;;11.45;9.73;;;;;;;22.85;63.88;99306.78;2618302;54;20558;-69
2022/07/21 06:56:29;;;;;;;12.95;11.63;;;;;;;23.06;63.67;99310.44;2617766;51;20035;-69
2022/07/21 06:58:58;;;;;;;11.45;10.25;;;;;;;23.24;63.15;99312.69;2618696;39;20434;-68
2022/07/21 07:01:28;;;;;;;9.57;8.73;;;;;;;23.21;62.25;99305.13;2617648;39;20395;-68
2022/07/21 07:03:58;;;;;;;11.15;9.95;;;;;;;23.29;61.67;99315.41;2618203;54;20561;-68
2022/07/21 07:06:29;;;;;;;11.45;10.10;;;;;;;23.08;62.32;99313.69;2617622;54;20037;-68
2022/07/21 07:09:01;;;;;;;10.70;9.60;;;;;;;22.84;62.97;99313.25;2618272;54;20569;-67
2022/07/21 07:11:33;;;;;;;10.07;8.82;;;;;;;22.69;63.38;99309.38;2617582;51;20037;-69
2022/07/21 07:14:02;;;;;;;10.73;9.32;;;;;;;22.55;63.92;99315.50;2618237;54;20030;-69
2022/07/21 07:16:46;;;;;;;10.80;9.70;;;;;;;22.35;64.80;99316.97;2618230;54;20057;-69
2022/07/21 07:19:16;;;;;;;10.57;9.43;;;;;;;22.34;65.01;99315.34;2617705;54;20030;-70
2022/07/21 07:21:46;;;;;;;12.80;9.73;;;;;;;22.44;64.84;99314.59;2618158;54;20030;-68
2022/07/21 07:24:18;;;;;;;11.50;9.40;;;;;;;22.64;64.44;99312.06;2617607;51;20030;-68
2022/07/21 07:26:48;;;;;;;10.70;8.90;;;;;;;22.74;64.62;99322.91;2618269;54;20031;-68
2022/07/21 07:29:17;;;;;;;11.95;9.73;;;;;;;22.82;64.30;99312.69;2618210;54;20294;-68
2022/07/21 07:31:47;;;;;;;16.58;14.77;;;;;;;22.78;63.89;99307.03;2618644;54;20038;-67
2022/07/21 07:34:17;;;;;;;11.15;9.52;;;;;;;22.72;64.01;99316.97;2619010;54;20027;-68
2022/07/21 07:36:47;;;;;;;10.23;9.15;;;;;;;22.62;63.87;99321.47;2618366;54;20023;-68
2022/07/21 07:39:19;;;;;;;10.18;9.18;;;;;;;22.57;63.87;99316.03;2618747;54;20039;-68
2022/07/21 07:41:49;;;;;;;9.65;8.75;;;;;;;22.68;63.93;99325.81;2619126;54;20015;-68
2022/07/21 07:44:18;;;;;;;9.43;8.52;;;;;;;22.90;63.31;99325.69;2619674;54;20030;-68
2022/07/21 07:46:48;;;;;;;12.27;9.48;;;;;;;23.00;63.08;99328.47;2618930;54;20038;-68
2022/07/21 07:49:18;;;;;;;10.00;9.00;;;;;;;23.08;61.94;99333.38;2619070;47;20035;-67
2022/07/21 07:51:48;;;;;;;10.77;9.73;;;;;;;23.07;60.81;99331.78;2619945;54;20031;-67
2022/07/21 07:54:20;;;;;;;11.80;9.02;;;;;;;23.35;60.77;99330.56;2619806;49;20059;-69
2022/07/21 07:56:50;;;;;;;10.07;8.88;;;;;;;23.45;59.86;99332.47;2619771;54;20034;-67
2022/07/21 07:59:20;;;;;;;9.25;8.27;;;;;;;23.54;59.51;99332.78;2619453;54;20041;-68
2022/07/21 08:01:49;;;;;;;11.38;8.77;;;;;;;23.68;59.25;99333.94;2618804;54;20034;-69
2022/07/21 08:04:19;;;;;;;9.90;7.55;;;;;;;23.60;58.17;99342.53;2618072;54;20026;-68
2022/07/21 08:06:49;;;;;;;8.45;7.55;;;;;;;23.58;58.86;99339.25;2618063;54;20037;-69
2022/07/21 08:09:21;;;;;;;10.40;7.07;;;;;;;23.72;58.18;99346.63;2617848;54;20035;-68
2022/07/21 08:11:52;;;;;;;10.48;7.80;;;;;;;23.89;58.33;99341.00;2617539;47;20042;-67
2022/07/21 08:14:21;;;;;;;8.52;7.05;;;;;;;24.28;57.14;99335.09;2618082;54;20030;-68
2022/07/21 08:16:51;;;;;;;11.82;10.63;;;;;;;24.40;56.76;99326.78;2619030;39;20415;-68
2022/07/21 08:19:21;;;;;;;8.50;7.20;;;;;;;24.66;55.41;99327.59;2617119;54;20086;-68
2022/07/21 08:21:51;;;;;;;8.15;6.80;;;;;;;24.69;55.69;99333.22;2617356;54;20037;-68
2022/07/21 08:24:43;;;;;;;10.70;7.13;;;;;;;24.59;55.59;99330.56;2617909;54;20142;-69
2022/07/21 08:27:13;;;;;;;9.87;6.50;;;;;;;24.54;55.10;99330.56;2617472;47;20029;-69
2022/07/21 08:29:42;;;;;;;6.97;5.88;;;;;;;24.39;54.71;99328.66;2617120;47;20275;-69
2022/07/21 08:32:12;;;;;;;6.72;6.03;;;;;;;24.00;55.07;99322.13;2616978;54;20027;-69
2022/07/21 08:34:42;;;;;;;6.07;5.47;;;;;;;23.87;55.25;99326.94;2617855;54;20034;-69
2022/07/21 08:37:12;;;;;;;7.93;6.03;;;;;;;23.86;55.75;99336.13;2617872;54;20080;-68
2022/07/21 08:39:44;;;;;;;11.32;5.57;;;;;;;23.75;55.48;99336.38;2617096;47;20034;-69
2022/07/21 08:42:15;;;;;;;7.70;6.20;;;;;;;23.63;55.91;99334.69;2617338;54;20042;-70
2022/07/21 08:44:45;;;;;;;8.70;7.47;;;;;;;23.75;56.37;99339.06;2617830;54;20065;-69
2022/07/21 08:47:14;;;;;;;9.13;6.80;;;;;;;23.78;56.07;99333.16;2617808;54;20038;-70
2022/07/21 08:49:44;;;;;;;8.50;6.90;;;;;;;23.74;56.21;99332.88;2617178;47;20133;-68
2022/07/21 08:52:14;;;;;;;8.43;7.57;;;;;;;23.65;56.84;99334.44;2617824;54;20030;-71
2022/07/21 08:54:46;;;;;;;8.00;7.07;;;;;;;23.59;56.90;99335.47;2618317;39;20457;-68
2022/07/21 08:57:16;;;;;;;13.35;7.18;;;;;;;23.57;56.37;99321.47;2617893;54;20043;-68
2022/07/21 08:59:46;;;;;;;8.90;7.50;;;;;;;23.54;57.00;99325.50;2617953;39;20441;-68
2022/07/21 09:02:30;;;;;;;7.85;7.05;;;;;;;23.53;56.36;99333.84;2617713;54;20026;-68
2022/07/21 09:05:00;;;;;;;;;;;;;;;23.62;56.35;99343.06;2617936;54;20030;-69
2022/07/21 09:07:29;;;;;;;;;;;;;;;23.71;54.26;99328.81;2617978;54;19946;-69
2022/07/21 09:10:02;;;;;;;;;;;;;;;23.75;54.09;99331.78;2617684;54;19942;-68
2022/07/21 09:12:32;;;;;;;;;;;;;;;23.98;53.97;99325.09;2617865;54;19939;-68
2022/07/21 09:15:14;;;;;;;;;;;;;;;23.92;52.72;99329.69;2618803;39;20319;-68
2022/07/21 09:17:44;;;;;;;;;;;;;;;23.82;52.52;99328.84;2617452;47;19950;-68
2022/07/21 09:20:33;;;;;;;;;;;;;;;23.95;52.73;99328.31;2617381;47;20022;-68
2022/07/21 09:23:03;;;;;;;;;;;;;;;24.25;52.29;99322.16;2617758;54;19947;-68
2022/07/21 09:25:39;;;;;;;;;;;;;;;24.37;51.85;99328.09;2618045;54;19938;-68
2022/07/21 09:28:10;;;;;;;;;;;;;;;24.31;52.34;99323.78;2617412;47;19973;-69
2022/07/21 09:30:53;;;;;;;;;;;;;;;24.34;51.28;99328.63;2617159;51;19938;-69
2022/07/21 09:33:23;;;;;;;;;;;;;;;24.36;51.39;99323.75;2617293;54;19969;-68
2022/07/21 09:35:57;;;;;;;;;;;;;;;24.47;51.50;99324.63;2618128;39;20342;-68
2022/07/21 09:38:27;;;;;;;;;;;;;;;24.78;51.28;99324.56;2617988;54;19938;-68
2022/07/21 09:41:06;;;;;;;;;;;;;;;24.93;50.90;99327.25;2617472;54;19946;-69
2022/07/21 09:43:41;;;;;;;;;;;;;;;25.05;49.95;99322.34;2617721;54;19938;-68
2022/07/21 09:46:12;;;;;;;;;;;;;;;25.17;49.61;99320.19;2618226;39;20334;-68
2022/07/21 09:48:43;;;;;;;;;;;;;;;25.13;48.13;99323.72;2617729;54;19947;-69
2022/07/21 09:51:29;;;;;;;;;;;;;;;25.02;47.92;99322.09;2617471;54;19939;-69
2022/07/21 09:54:00;;;;;;;;;;;;;;;24.89;47.65;99332.38;2618070;39;20385;-67
2022/07/21 09:56:34;;;;;;;;;;;;;;;24.97;47.82;99320.22;2617706;54;19939;-68
2022/07/21 09:59:04;;;;;;;;;;;;;;;24.98;46.67;99321.81;2617547;54;19950;-68
2022/07/21 10:01:35;;;;;;;;;;;;;;;25.09;46.33;99328.06;2618186;39;20387;-68
2022/07/21 10:04:06;;;;;;;;;;;;;;;25.35;46.78;99320.66;2617520;54;19953;-69
2022/07/21 10:06:37;;;;;;;;;;;;;;;25.57;45.87;99310.28;2617851;54;19954;-69
2022/07/21 10:09:10;;;;;;;;;;;;;;;25.76;45.80;99318.56;2616994;47;19946;-70
2022/07/21 10:11:44;;;;;;;;;;;;;;;25.97;44.48;99313.88;2617462;54;19962;-69
2022/07/21 10:14:14;;;;;;;;;;;;;;;26.05;44.38;99313.25;2617685;54;19938;-69
2022/07/21 10:16:43;;;;;;;;;;;;;;;26.04;44.51;99308.91;2618310;54;19927;-66
2022/07/21 10:19:23;;;;;;;;;;;;;;;25.94;44.35;99311.72;2618557;47;19985;-68
2022/07/21 10:21:58;;;;;;;;;;;;;;;25.98;44.07;99312.75;2618995;54;20058;-66
2022/07/21 10:24:29;;;;;;;;;;;;;;;25.88;43.41;99302.81;2618622;54;20452;-65
2022/07/21 10:27:05;;;;;;;;;;;;;;;26.02;44.12;99299.47;2618665;54;19970;-65
2022/07/21 10:29:50;;;;;;;;;;;;;;;26.18;44.17;99314.53;2621279;54;19946;-67
2022/07/21 10:32:28;;;;;;;;;;;;;;;26.19;43.41;99311.50;2622707;54;19950;-67
2022/07/21 10:34:58;;;;;;;;;;;;;;;26.04;43.18;99297.28;2623774;47;19938;-67
2022/07/21 10:37:49;;;;;;;;;;;;;;;26.10;43.29;99310.50;2623041;54;19950;-65
2022/07/21 10:40:33;;;;;;;;;;;;;;;26.22;43.71;99302.03;2622458;54;19953;-65
2022/07/21 10:43:19;;;;;;;;;;;;;;;26.41;42.62;99302.94;2622746;54;19952;-67
2022/07/21 10:45:51;;;;;;;;;;;;;;;26.31;42.75;99294.09;2621962;54;19938;-66
2022/07/21 10:48:35;;;;;;;;;;;;;;;26.50;42.78;99292.34;2620150;54;19965;-67
2022/07/21 10:51:05;;;;;;;;;;;;;;;26.74;42.10;99296.97;2622294;54;20457;-67
2022/07/21 10:53:35;;;;;;;;;;;;;;;26.81;41.62;99290.09;2619415;54;19970;-68
2022/07/21 10:56:04;;;;;;;;;;;;;;;27.03;40.70;99299.66;2619188;54;19946;-65
2022/07/21 10:58:34;;;;;;;;;;;;;;;27.10;40.93;99306.34;2619722;39;20342;-67
2022/07/21 11:01:07;;;;;;;;;;;;;;;26.86;40.71;99297.38;2619373;54;19959;-65
2022/07/21 11:03:41;;;;;;;;;;;;;;;26.53;40.65;99297.16;2619883;39;20334;-68
2022/07/21 11:06:19;;;;;;;;;;;;;;;26.50;41.16;99295.03;2619409;47;20502;-66
2022/07/21 11:09:08;;;;;;;;;;;;;;;26.68;40.52;99278.03;2619874;54;19938;-67
2022/07/21 11:11:38;;;;;;;;;;;;;;;26.87;40.27;99290.88;2619684;54;19953;-67
2022/07/21 11:14:13;;;;;;;;;;;;;;;26.91;39.51;99287.28;2620052;54;19943;-69
2022/07/21 11:17:09;;;;;;;;;;;;;;;26.80;39.72;99287.69;2620272;54;19944;-68
2022/07/21 11:19:43;;;;;;;;;;;;;;;26.58;39.92;99282.78;2619244;54;20456;-69
2022/07/21 11:22:14;;;;;;;;;;;;;;;26.61;39.96;99277.56;2619457;54;19953;-68
2022/07/21 11:24:49;;;;;;;;;;;;;;;26.67;39.87;99265.59;2619686;54;19939;-68
2022/07/21 11:27:20;;;;;;;;;;;;;;;27.05;39.11;99273.03;2619428;54;19939;-67
2022/07/21 11:29:53;;;;;;;;;;;;;;;27.17;38.55;99279.69;2619368;54;19951;-68
2022/07/21 11:32:23;;;;;;;;;;;;;;;27.32;38.32;99265.13;2618815;54;19977;-67
2022/07/21 11:34:55;;;;;;;;;;;;;;;27.37;38.07;99267.75;2619044;54;19943;-68
2022/07/21 11:37:30;;;;;;;;;;;;;;;27.27;38.65;99264.38;2619452;54;19939;-67
2022/07/21 11:40:06;;;;;;;;;;;;;;;27.03;38.57;99262.47;2618739;47;19953;-68
2022/07/21 11:42:37;;;;;;;;;;;;;;;26.82;39.52;99264.63;2620114;39;20315;-67
2022/07/21 11:45:07;;;;;;;;;;;;;;;26.76;39.64;99262.25;2619255;54;19946;-68
2022/07/21 11:47:37;;;;;;;;;;;;;;;26.68;39.92;99258.25;2618982;54;19947;-65
2022/07/21 11:50:10;;;;;;;;;;;;;;;26.56;40.01;99264.06;2618783;54;19946;-68
2022/07/21 11:52:41;;;;;;;;;;;;;;;26.52;40.54;99254.88;2619131;54;19945;-66
2022/07/21 11:55:12;;;;;;;;;;;;;;;26.81;40.20;99259.47;2618943;54;19947;-65
2022/07/21 11:57:46;;;;;;;;;;;;;;;27.23;39.86;99253.31;2618700;54;19947;-66
2022/07/21 12:00:16;;;;;;;;;;;;;;;27.36;39.02;99252.59;2618398;54;19938;-65
2022/07/21 12:02:50;;;;;;;;;;;;;;;27.17;39.19;99251.75;2618394;47;20050;-66
2022/07/21 12:05:24;;;;;;;;;;;;;;;27.22;39.35;99248.16;2618839;54;19946;-67